createdAt,value
2017-10-18T00:00:12.577Z,80.80
2017-10-18T00:03:14.057Z,81.20
2017-10-18T00:06:15.494Z,79.80
2017-10-18T00:09:16.945Z,79.60
2017-10-18T00:12:18.360Z,79.40
2017-10-18T00:15:20.556Z,80.60
2017-10-18T00:18:21.984Z,79.00
2017-10-18T00:21:24.175Z,80.10
2017-10-18T00:24:25.644Z,78.60
2017-10-18T00:27:27.059Z,78.30
2017-10-18T00:30:29.259Z,80.10
2017-10-18T00:33:30.736Z,79.60
2017-10-18T00:36:32.944Z,80.10
2017-10-18T00:39:35.148Z,80.50
2017-10-18T00:42:36.623Z,79.30
2017-10-18T00:45:38.840Z,80.20
2017-10-18T00:48:40.346Z,79.90
2017-10-18T00:51:41.857Z,81.00
2017-10-18T00:54:44.100Z,80.80
2017-10-18T00:57:45.537Z,79.40
2017-10-18T01:00:46.988Z,80.10
2017-10-18T01:03:48.431Z,78.40
2017-10-18T01:06:49.868Z,80.30
2017-10-18T01:09:51.327Z,80.60
2017-10-18T01:12:52.753Z,80.10
2017-10-18T01:15:54.191Z,80.10
2017-10-18T01:18:56.374Z,80.80
2017-10-18T01:21:58.520Z,80.90
2017-10-18T01:24:59.982Z,79.00
2017-10-18T01:28:01.446Z,80.60
2017-10-18T01:31:03.738Z,80.40
2017-10-18T01:34:05.163Z,80.30
2017-10-18T01:37:07.326Z,81.30
2017-10-18T01:40:08.749Z,79.40
2017-10-18T01:43:10.207Z,79.90
2017-10-18T01:46:11.647Z,79.90
2017-10-18T01:49:13.182Z,81.30
2017-10-18T01:52:14.591Z,80.90
2017-10-18T01:55:16.008Z,79.70
2017-10-18T01:58:17.481Z,80.20
2017-10-18T02:01:18.939Z,79.70
2017-10-18T02:04:21.095Z,79.90
2017-10-18T02:07:22.672Z,79.70
2017-10-18T02:10:24.084Z,78.70
2017-10-18T02:13:25.554Z,79.30
2017-10-18T02:16:26.980Z,80.00
2017-10-18T02:19:28.425Z,79.80
2017-10-18T02:22:29.835Z,80.10
2017-10-18T02:25:32.037Z,79.90
2017-10-18T02:28:33.527Z,78.20
2017-10-18T02:31:34.963Z,79.50
2017-10-18T02:34:36.416Z,78.90
2017-10-18T02:37:37.839Z,80.10
2017-10-18T02:40:39.320Z,79.00
2017-10-18T02:43:40.783Z,79.00
2017-10-18T02:46:42.264Z,78.90
2017-10-18T02:49:43.773Z,79.40
2017-10-18T02:52:45.239Z,79.50
2017-10-18T02:55:46.735Z,79.50
2017-10-18T02:58:48.902Z,81.30
2017-10-18T03:01:51.078Z,81.30
2017-10-18T03:04:53.212Z,81.50
2017-10-18T03:07:54.689Z,79.90
2017-10-18T03:10:56.880Z,81.30
2017-10-18T03:13:59.074Z,81.30
2017-10-18T03:17:00.597Z,79.40
2017-10-18T03:20:02.880Z,81.30
2017-10-18T03:23:04.416Z,80.80
2017-10-18T03:26:05.901Z,81.20
2017-10-18T03:29:07.457Z,80.10
2017-10-18T03:32:08.939Z,80.40
2017-10-18T03:35:10.413Z,79.60
2017-10-18T03:38:11.939Z,80.50
2017-10-18T03:41:13.364Z,80.20
2017-10-18T03:44:14.916Z,80.50
2017-10-18T03:47:16.379Z,78.90
2017-10-18T03:50:17.872Z,78.90
2017-10-18T03:53:19.346Z,78.60
2017-10-18T03:56:20.788Z,80.50
2017-10-18T03:59:22.275Z,80.00
2017-10-18T04:02:24.403Z,80.20
2017-10-18T04:05:25.867Z,78.60
2017-10-18T04:08:27.319Z,78.70
2017-10-18T04:11:28.762Z,78.40
2017-10-18T04:14:30.181Z,78.90
2017-10-18T04:17:31.635Z,79.10
2017-10-18T04:20:33.089Z,79.80
2017-10-18T04:23:34.551Z,80.50
2017-10-18T04:26:36.796Z,81.20
2017-10-18T04:29:38.279Z,80.70
2017-10-18T04:32:39.784Z,79.60
2017-10-18T04:35:41.269Z,79.60
2017-10-18T04:38:42.772Z,80.00
2017-10-18T04:41:44.181Z,79.00
2017-10-18T04:44:45.683Z,79.50
2017-10-18T04:47:47.925Z,80.50
2017-10-18T04:50:49.358Z,80.20
2017-10-18T04:53:50.822Z,80.20
2017-10-18T04:56:52.253Z,79.20
2017-10-18T04:59:53.692Z,79.70
2017-10-18T05:02:55.157Z,79.70
2017-10-18T05:05:56.603Z,80.30
2017-10-18T05:08:58.126Z,79.00
2017-10-18T05:12:00.410Z,80.40
2017-10-18T05:15:01.933Z,79.40
2017-10-18T05:18:03.407Z,78.80
2017-10-18T05:21:05.631Z,79.60
2017-10-18T05:24:07.117Z,78.10
2017-10-18T05:27:09.387Z,79.40
2017-10-18T05:30:11.618Z,79.30
2017-10-18T05:33:13.080Z,77.50
2017-10-18T05:36:14.583Z,79.70
2017-10-18T05:39:16.123Z,77.30
2017-10-18T05:42:18.321Z,79.80
2017-10-18T05:45:19.839Z,79.80
2017-10-18T05:48:21.303Z,79.10
2017-10-18T05:51:23.567Z,80.60
2017-10-18T05:54:24.996Z,79.50
2017-10-18T05:57:26.498Z,80.40
2017-10-18T06:00:27.929Z,79.00
2017-10-18T06:03:29.346Z,78.60
2017-10-18T06:06:31.546Z,80.00
2017-10-18T06:09:33.041Z,79.10
2017-10-18T06:12:34.466Z,78.20
2017-10-18T06:15:37.123Z,79.40
2017-10-18T06:18:38.607Z,77.60
2017-10-18T06:21:40.745Z,80.60
2017-10-18T06:24:42.179Z,79.00
2017-10-18T06:27:43.585Z,80.70
2017-10-18T06:30:45.019Z,80.00
2017-10-18T06:33:46.397Z,80.90
2017-10-18T06:36:47.822Z,80.20
2017-10-18T06:39:49.983Z,81.90
2017-10-18T06:42:51.419Z,80.90
2017-10-18T06:45:52.871Z,81.50
2017-10-18T06:48:54.355Z,81.30
2017-10-18T06:51:56.515Z,82.80
2017-10-18T06:54:57.855Z,81.10
2017-10-18T06:57:59.296Z,82.40
2017-10-18T07:01:00.711Z,83.20
2017-10-18T07:04:02.132Z,83.50
2017-10-18T07:07:04.317Z,83.70
2017-10-18T07:10:05.701Z,82.60
2017-10-18T07:13:07.139Z,82.60
2017-10-18T07:16:08.522Z,82.00
2017-10-18T07:19:10.348Z,82.40
2017-10-18T07:22:11.910Z,82.70
2017-10-18T07:25:13.686Z,84.10
2017-10-18T07:28:15.411Z,83.80
2017-10-18T07:31:17.245Z,83.00
2017-10-18T07:34:19.786Z,84.80
2017-10-18T07:37:21.492Z,84.30
2017-10-18T07:40:23.274Z,84.30
2017-10-18T07:43:24.937Z,84.10
2017-10-18T07:46:26.825Z,84.40
2017-10-18T07:49:28.593Z,85.10
2017-10-18T07:52:29.947Z,85.30
2017-10-18T07:55:31.356Z,84.50
2017-10-18T07:58:43.021Z,85.00
2017-10-18T08:19:39.500Z,84.80
2017-10-18T08:22:40.958Z,84.20
2017-10-18T08:25:42.471Z,85.10
2017-10-18T08:28:44.716Z,85.80
2017-10-18T08:31:46.199Z,85.30
2017-10-18T08:34:48.383Z,85.50
2017-10-18T08:37:50.587Z,85.30
2017-10-18T08:40:52.049Z,84.60
2017-10-18T08:43:53.598Z,84.80
2017-10-18T08:46:55.040Z,84.20
2017-10-18T08:49:56.600Z,84.00
2017-10-18T08:52:58.062Z,84.40
2017-10-18T08:55:59.553Z,85.90
2017-10-18T08:59:01.072Z,84.70
2017-10-18T09:02:03.306Z,85.80
2017-10-18T09:05:04.776Z,85.00
2017-10-18T09:08:06.231Z,84.60
2017-10-18T09:11:07.756Z,85.00
2017-10-18T09:14:09.899Z,86.90
2017-10-18T09:17:11.385Z,85.40
2017-10-18T09:20:12.887Z,86.30
2017-10-18T09:23:14.339Z,86.60
2017-10-18T09:26:15.740Z,86.60
2017-10-18T09:29:17.214Z,86.00
2017-10-18T09:32:18.670Z,86.30
2017-10-18T09:35:20.054Z,86.70
2017-10-18T09:38:21.424Z,87.20
2017-10-18T09:41:23.563Z,88.90
2017-10-18T09:44:25.830Z,87.80
2017-10-18T09:47:27.249Z,86.70
2017-10-18T09:50:28.660Z,86.80
2017-10-18T09:53:30.071Z,87.10
2017-10-18T09:56:31.481Z,88.40
2017-10-18T09:59:33.655Z,88.60
2017-10-18T10:02:35.816Z,88.50
2017-10-18T10:05:38.196Z,87.90
2017-10-18T10:08:42.029Z,88.10
2017-10-18T10:11:43.580Z,87.20
2017-10-18T10:14:44.956Z,86.40
2017-10-18T10:17:46.474Z,88.00
2017-10-18T10:20:48.467Z,88.40
2017-10-18T10:23:52.165Z,88.00
2017-10-18T10:26:53.676Z,87.80
2017-10-18T10:29:55.152Z,88.70
2017-10-18T10:32:58.993Z,89.30
2017-10-18T10:36:00.993Z,89.10
2017-10-18T10:39:03.634Z,89.00
2017-10-18T10:42:05.728Z,88.60
2017-10-18T10:45:08.262Z,88.00
2017-10-18T10:48:09.878Z,85.10
2017-10-18T10:51:14.994Z,86.00
2017-10-18T10:54:17.170Z,85.20
2017-10-18T10:57:19.344Z,84.20
2017-10-18T11:00:20.815Z,83.80
2017-10-18T11:03:22.896Z,79.40
2017-10-18T11:06:25.025Z,78.90
2017-10-18T11:09:26.441Z,78.70
2017-10-18T11:12:27.886Z,76.80
2017-10-18T11:15:29.274Z,79.20
2017-10-18T11:18:30.775Z,81.90
2017-10-18T11:21:32.922Z,76.10
2017-10-18T11:24:34.379Z,75.20
2017-10-18T11:27:35.847Z,76.10
2017-10-18T11:30:38.036Z,75.90
2017-10-18T11:33:39.497Z,75.30
2017-10-18T11:36:40.946Z,70.20
2017-10-18T11:39:42.391Z,71.10
2017-10-18T11:42:43.770Z,69.30
2017-10-18T11:45:45.347Z,74.20
2017-10-18T11:48:46.783Z,69.40
2017-10-18T11:51:48.202Z,68.00
2017-10-18T11:54:49.763Z,68.90
2017-10-18T11:57:51.186Z,68.50
2017-10-18T12:00:53.385Z,68.80
2017-10-18T12:03:54.829Z,67.40
2017-10-18T12:06:56.251Z,66.50
2017-10-18T12:09:58.545Z,65.30
2017-10-18T12:13:00.741Z,68.70
2017-10-18T12:16:02.296Z,67.50
2017-10-18T12:19:03.741Z,66.70
2017-10-18T12:22:05.192Z,65.90
2017-10-18T12:25:06.628Z,64.30
2017-10-18T12:28:08.851Z,66.50
2017-10-18T12:31:10.292Z,66.20
2017-10-18T12:34:11.779Z,65.90
2017-10-18T12:37:13.198Z,68.00
2017-10-18T12:40:14.651Z,67.30
2017-10-18T12:43:16.129Z,66.90
2017-10-18T12:46:17.680Z,66.20
2017-10-18T12:49:19.171Z,67.90
2017-10-18T12:52:21.307Z,70.40
2017-10-18T12:55:22.815Z,70.00
2017-10-18T12:58:24.243Z,66.90
2017-10-18T13:01:25.669Z,66.80
2017-10-18T13:04:27.025Z,67.50
2017-10-18T13:07:28.385Z,68.40
2017-10-18T13:10:30.612Z,70.90
2017-10-18T13:13:32.215Z,70.00
2017-10-18T13:16:34.472Z,64.30
2017-10-18T13:19:36.011Z,64.20
2017-10-18T13:22:37.431Z,64.40
2017-10-18T13:25:38.789Z,66.30
2017-10-18T13:28:40.483Z,67.10
2017-10-18T13:31:41.954Z,66.60
2017-10-18T13:34:44.111Z,70.50
2017-10-18T13:37:45.416Z,69.60
2017-10-18T13:40:46.838Z,65.60
2017-10-18T13:43:48.964Z,67.80
2017-10-18T13:46:50.474Z,67.70
2017-10-18T13:49:51.886Z,64.70
2017-10-18T13:52:53.255Z,65.90
2017-10-18T13:55:55.356Z,68.30
2017-10-18T13:58:56.650Z,67.10
2017-10-18T14:01:57.981Z,67.00
2017-10-18T14:04:59.315Z,70.30
2017-10-18T14:08:01.025Z,67.60
2017-10-18T14:11:02.617Z,71.50
2017-10-18T14:14:04.244Z,68.00
2017-10-18T14:17:06.413Z,67.50
2017-10-18T14:20:08.562Z,70.80
2017-10-18T14:23:10.002Z,70.60
2017-10-18T14:26:11.394Z,72.10
2017-10-18T14:29:12.812Z,71.00
2017-10-18T14:32:14.646Z,71.10
2017-10-18T14:35:16.145Z,72.20
2017-10-18T14:38:17.526Z,73.90
2017-10-18T14:41:18.904Z,74.40
2017-10-18T14:44:20.263Z,76.90
2017-10-18T14:47:21.677Z,77.50
2017-10-18T14:50:23.104Z,77.50
2017-10-18T14:53:24.457Z,78.20
2017-10-18T14:56:26.572Z,79.60
2017-10-18T14:59:27.986Z,79.10
2017-10-18T15:02:30.090Z,80.50
2017-10-18T15:05:31.452Z,79.30
2017-10-18T15:08:32.889Z,79.90
2017-10-18T15:11:34.340Z,80.10
2017-10-18T15:14:35.704Z,79.90
2017-10-18T15:17:37.093Z,79.50
2017-10-18T15:20:38.480Z,80.50
2017-10-18T15:23:39.892Z,81.30
2017-10-18T15:26:41.271Z,81.10
2017-10-18T15:29:42.770Z,81.40
2017-10-18T15:32:44.172Z,81.00
2017-10-18T15:35:46.297Z,82.20
2017-10-18T15:38:47.728Z,81.90
2017-10-18T15:41:49.142Z,80.00
2017-10-18T15:44:50.593Z,82.10
2017-10-18T15:47:52.765Z,83.20
2017-10-18T15:50:54.591Z,82.80
2017-10-18T15:53:55.989Z,82.20
2017-10-18T15:56:57.381Z,82.30
2017-10-18T15:59:58.964Z,83.50
2017-10-18T16:03:00.293Z,83.60
2017-10-18T16:06:02.075Z,83.60
2017-10-18T16:09:04.248Z,83.80
2017-10-18T16:12:06.874Z,83.60
2017-10-18T16:15:09.193Z,83.40
2017-10-18T16:18:11.322Z,83.40
2017-10-18T16:21:13.611Z,83.20
2017-10-18T16:24:15.352Z,83.20
2017-10-18T16:27:16.761Z,83.20
2017-10-18T16:30:20.248Z,83.40
2017-10-18T16:33:27.412Z,82.70
2017-10-18T16:36:28.745Z,82.50
2017-10-18T16:39:32.666Z,82.30
2017-10-18T16:42:34.539Z,82.50
2017-10-18T16:45:36.814Z,83.20
2017-10-18T16:48:38.228Z,82.70
2017-10-18T16:51:39.640Z,82.70
2017-10-18T16:54:41.620Z,82.40
2017-10-18T16:57:44.943Z,81.00
2017-10-18T17:00:47.248Z,82.40
2017-10-18T17:03:50.441Z,81.30
2017-10-18T17:06:51.821Z,82.30
2017-10-18T17:09:54.580Z,82.40
2017-10-18T17:12:56.800Z,82.20
2017-10-18T17:15:58.381Z,80.50
2017-10-18T17:18:59.994Z,81.80
2017-10-18T17:22:02.540Z,80.20
2017-10-18T17:25:04.973Z,81.70
2017-10-18T17:28:07.051Z,81.90
2017-10-18T17:31:08.853Z,81.90
2017-10-18T17:34:12.988Z,82.00
2017-10-18T17:37:14.917Z,81.30
2017-10-18T17:40:18.597Z,81.20
2017-10-18T17:43:21.323Z,82.00
2017-10-18T17:46:23.889Z,82.10
2017-10-18T17:49:25.247Z,81.90
2017-10-18T17:52:27.591Z,82.60
2017-10-18T17:55:30.768Z,82.30
2017-10-18T17:58:33.474Z,81.40
2017-10-18T18:01:36.623Z,83.20
2017-10-18T18:04:39.361Z,81.80
2017-10-18T18:07:40.922Z,81.60
2017-10-18T18:10:42.468Z,81.70
2017-10-18T18:13:45.392Z,81.60
2017-10-18T18:16:48.163Z,80.80
2017-10-18T18:19:50.618Z,81.80
2017-10-18T18:22:52.767Z,82.60
2017-10-18T18:25:55.022Z,83.10
2017-10-18T18:28:59.785Z,82.50
2017-10-18T18:32:03.218Z,82.90
2017-10-18T18:35:04.787Z,82.90
2017-10-18T18:38:06.677Z,82.60
2017-10-18T18:41:08.326Z,81.60
2017-10-18T18:44:13.681Z,82.50
2017-10-18T18:47:15.970Z,82.60
2017-10-18T18:50:17.609Z,81.50
2017-10-18T18:53:20.252Z,83.10
2017-10-18T18:56:21.930Z,82.30
2017-10-18T18:59:26.825Z,82.60
2017-10-18T19:02:29.031Z,81.10
2017-10-18T19:05:30.529Z,81.80
2017-10-18T19:08:32.056Z,81.50
2017-10-18T19:11:34.401Z,80.90
2017-10-18T19:14:35.821Z,81.50
2017-10-18T19:17:38.473Z,81.70
2017-10-18T19:20:39.889Z,81.40
2017-10-18T19:23:42.045Z,82.30
2017-10-18T19:26:45.300Z,82.10
2017-10-18T19:29:46.753Z,81.50
2017-10-18T19:32:48.126Z,81.40
2017-10-18T19:35:50.553Z,81.60
2017-10-18T19:38:52.055Z,81.70
2017-10-18T19:41:54.084Z,80.50
2017-10-18T19:44:58.657Z,81.40
2017-10-18T19:48:00.422Z,80.50
2017-10-18T19:51:02.801Z,81.40
2017-10-18T19:54:05.004Z,81.90
2017-10-18T19:57:07.492Z,81.50
2017-10-18T20:00:09.719Z,80.50
2017-10-18T20:03:12.140Z,81.20
2017-10-18T20:06:14.618Z,81.50
2017-10-18T20:09:16.312Z,82.50
2017-10-18T20:12:20.259Z,81.60
2017-10-18T20:15:23.750Z,82.80
2017-10-18T20:18:25.209Z,82.30
2017-10-18T20:21:26.938Z,83.40
2017-10-18T20:24:28.735Z,82.10
2017-10-18T20:27:31.266Z,82.40
2017-10-18T20:30:32.974Z,82.00
2017-10-18T20:33:35.312Z,82.10
2017-10-18T20:39:46.324Z,80.60
2017-10-18T20:42:47.894Z,81.80
2017-10-18T20:45:49.607Z,81.30
2017-10-18T20:48:51.527Z,81.50
2017-10-18T20:51:53.254Z,80.90
2017-10-18T20:54:55.046Z,82.30
2017-10-18T20:57:56.820Z,81.90
2017-10-18T21:00:59.335Z,82.20
2017-10-18T21:04:01.080Z,82.00
2017-10-18T21:07:02.880Z,82.40
2017-10-18T21:10:04.663Z,82.30
2017-10-18T21:13:06.380Z,82.60
2017-10-18T21:16:07.921Z,80.60
2017-10-18T21:19:09.763Z,82.20
2017-10-18T21:22:11.182Z,80.60
2017-10-18T21:25:12.655Z,81.60
2017-10-18T21:28:14.319Z,81.90
2017-10-18T21:31:15.940Z,82.10
2017-10-18T21:34:17.395Z,82.90
2017-10-18T21:37:18.902Z,82.10
2017-10-18T21:40:20.342Z,80.80
2017-10-18T21:43:22.471Z,80.40
2017-10-18T21:46:25.181Z,81.30
2017-10-18T21:49:26.709Z,81.20
2017-10-18T21:52:28.270Z,81.90
2017-10-18T21:55:29.636Z,81.00
2017-10-18T21:58:31.094Z,82.30
2017-10-18T22:01:32.518Z,81.60
2017-10-18T22:04:33.957Z,81.70
2017-10-18T22:07:35.580Z,81.50
2017-10-18T22:10:37.012Z,82.40
2017-10-18T22:13:38.474Z,81.40
2017-10-18T22:16:39.948Z,81.80
2017-10-18T22:19:41.373Z,80.80
2017-10-18T22:22:42.813Z,82.20
2017-10-18T22:25:44.260Z,81.20
2017-10-18T22:28:45.686Z,81.60
2017-10-18T22:31:47.127Z,82.20
2017-10-18T22:34:49.334Z,82.80
2017-10-18T22:37:50.714Z,81.30
2017-10-18T22:40:52.198Z,81.30
2017-10-18T22:43:54.369Z,82.70
2017-10-18T22:46:56.648Z,82.70
2017-10-18T22:49:59.118Z,81.60
2017-10-18T22:53:00.876Z,82.60
2017-10-18T22:56:03.124Z,82.90
2017-10-18T22:59:05.365Z,82.30
2017-10-18T23:02:07.074Z,81.80
2017-10-18T23:05:09.409Z,81.70
2017-10-18T23:08:11.745Z,81.30
2017-10-18T23:11:13.238Z,81.50
2017-10-18T23:14:14.750Z,81.10
2017-10-18T23:17:16.203Z,80.40
2017-10-18T23:20:17.882Z,81.30
2017-10-18T23:23:19.518Z,82.00
2017-10-18T23:26:21.952Z,80.80
2017-10-18T23:29:23.462Z,80.20
2017-10-18T23:32:25.024Z,81.00
2017-10-18T23:35:26.828Z,80.80
2017-10-18T23:38:28.323Z,79.60
2017-10-18T23:41:29.793Z,81.30
2017-10-18T23:44:31.300Z,82.20
2017-10-18T23:47:32.903Z,81.50
2017-10-18T23:50:34.444Z,82.30
2017-10-18T23:53:35.865Z,81.90
2017-10-18T23:56:37.377Z,82.10
2017-10-18T23:59:39.522Z,82.50
